createdAt,value
2022-08-17T00:02:21.772Z,7.18
2022-08-17T00:05:32.746Z,7.05
2022-08-17T00:08:40.303Z,7.15
2022-08-17T00:12:40.346Z,7.65
2022-08-17T00:15:14.596Z,7.43
2022-08-17T00:19:01.912Z,7.55
2022-08-17T00:21:59.980Z,7.85
2022-08-17T00:25:15.923Z,6.60
2022-08-17T00:28:20.877Z,7.43
2022-08-17T00:31:26.373Z,7.68
2022-08-17T00:34:29.668Z,7.43
2022-08-17T00:37:35.428Z,6.63
2022-08-17T00:40:44.934Z,7.15
2022-08-17T00:43:54.117Z,6.57
2022-08-17T00:46:58.682Z,6.15
2022-08-17T00:50:02.186Z,7.80
2022-08-17T00:53:06.535Z,6.60
2022-08-17T00:56:15.611Z,6.82
2022-08-17T00:59:24.178Z,6.43
2022-08-17T01:02:34.901Z,6.90
2022-08-17T01:05:49.399Z,6.93
2022-08-17T01:08:57.270Z,6.32
2022-08-17T01:12:01.912Z,6.90
2022-08-17T01:18:13.464Z,5.50
2022-08-17T01:21:27.743Z,6.10
2022-08-17T01:27:39.033Z,5.50
2022-08-17T01:30:59.003Z,6.70
2022-08-17T01:34:08.629Z,6.50
2022-08-17T01:37:13.899Z,6.65
2022-08-17T01:40:27.022Z,6.38
2022-08-17T01:43:41.127Z,6.25
2022-08-17T01:46:44.401Z,6.82
2022-08-17T01:49:47.594Z,5.80
2022-08-17T01:52:56.692Z,6.67
2022-08-17T01:56:07.730Z,6.47
2022-08-17T01:59:11.651Z,6.85
2022-08-17T02:02:31.132Z,6.72
2022-08-17T02:05:35.143Z,6.00
2022-08-17T02:08:57.047Z,6.45
2022-08-17T02:12:37.100Z,6.72
2022-08-17T02:15:27.174Z,6.40
2022-08-17T02:18:30.520Z,7.53
2022-08-17T02:21:34.045Z,6.53
2022-08-17T02:25:00.319Z,6.93
2022-08-17T02:28:05.846Z,6.78
2022-08-17T02:31:12.477Z,6.65
2022-08-17T02:34:16.813Z,7.05
2022-08-17T02:37:20.334Z,6.53
2022-08-17T02:40:35.081Z,6.25
2022-08-17T02:43:41.267Z,6.85
2022-08-17T02:46:44.635Z,7.35
2022-08-17T02:49:54.239Z,7.43
2022-08-17T02:53:02.346Z,7.45
2022-08-17T02:56:06.595Z,8.07
2022-08-17T02:59:11.307Z,7.70
2022-08-17T03:02:14.534Z,8.30
2022-08-17T03:05:23.395Z,8.03
2022-08-17T03:08:27.195Z,8.57
2022-08-17T03:11:30.469Z,8.55
2022-08-17T03:14:41.263Z,8.97
2022-08-17T03:17:46.016Z,9.27
2022-08-17T03:20:49.231Z,9.25
2022-08-17T03:23:54.339Z,9.17
2022-08-17T03:26:58.225Z,9.73
2022-08-17T03:30:03.398Z,8.70
2022-08-17T03:33:10.997Z,10.68
2022-08-17T03:36:14.978Z,10.27
2022-08-17T03:39:18.211Z,11.38
2022-08-17T03:42:31.307Z,11.33
2022-08-17T03:49:18.570Z,10.93
2022-08-17T03:52:39.507Z,11.55
2022-08-17T03:56:00.501Z,11.82
2022-08-17T03:59:03.911Z,11.98
2022-08-17T04:02:15.200Z,13.00
2022-08-17T04:05:18.561Z,14.05
2022-08-17T04:08:22.093Z,13.45
2022-08-17T04:11:25.354Z,13.30
2022-08-17T04:14:31.109Z,15.63
2022-08-17T04:17:35.744Z,15.50
2022-08-17T04:20:39.026Z,15.18
2022-08-17T04:23:42.262Z,17.03
2022-08-17T04:26:52.981Z,16.30
2022-08-17T04:29:58.478Z,15.60
2022-08-17T04:33:08.606Z,17.35
2022-08-17T04:36:14.658Z,17.08
2022-08-17T04:39:17.947Z,16.00
2022-08-17T04:42:20.120Z,16.43
2022-08-17T04:45:23.830Z,16.20
2022-08-17T04:51:54.644Z,16.20
2022-08-17T04:55:03.630Z,16.88
2022-08-17T04:58:07.324Z,18.38
2022-08-17T05:01:10.824Z,16.30
2022-08-17T05:04:33.221Z,17.35
2022-08-17T05:07:38.502Z,17.98
2022-08-17T05:10:45.339Z,17.47
2022-08-17T05:13:50.729Z,17.15
2022-08-17T05:16:53.938Z,19.02
2022-08-17T05:19:58.710Z,16.92
2022-08-17T05:23:07.080Z,16.20
2022-08-17T05:26:15.235Z,17.08
2022-08-17T05:29:35.250Z,16.83
2022-08-17T05:32:40.471Z,18.33
2022-08-17T05:35:48.753Z,17.63
2022-08-17T05:38:51.920Z,16.70
2022-08-17T05:41:55.103Z,17.38
2022-08-17T05:44:59.422Z,17.92
2022-08-17T05:48:03.106Z,16.65
2022-08-17T05:54:43.609Z,17.30
2022-08-17T05:58:12.335Z,18.23
2022-08-17T06:01:33.236Z,19.45
2022-08-17T06:05:03.599Z,17.42
2022-08-17T06:08:22.832Z,16.50
2022-08-17T06:11:36.699Z,18.73
2022-08-17T06:14:59.360Z,18.17
2022-08-17T06:18:13.727Z,18.00
2022-08-17T06:21:23.735Z,18.17
2022-08-17T06:24:45.413Z,18.83
2022-08-17T06:27:55.250Z,18.45
2022-08-17T06:31:08.104Z,18.65
2022-08-17T06:34:13.913Z,17.88
2022-08-17T06:38:05.028Z,17.98
2022-08-17T06:41:22.624Z,20.17
2022-08-17T06:44:51.457Z,19.02
2022-08-17T06:48:05.722Z,18.05
2022-08-17T06:54:32.773Z,16.25
2022-08-17T06:57:43.364Z,17.20
2022-08-17T07:00:49.521Z,16.90
2022-08-17T07:04:11.501Z,16.65
2022-08-17T07:07:48.703Z,15.70
2022-08-17T07:10:58.687Z,15.25
2022-08-17T07:14:25.051Z,14.85
2022-08-17T07:17:46.636Z,11.70
2022-08-17T07:20:58.925Z,10.95
2022-08-17T07:24:30.021Z,8.65
2022-08-17T07:27:40.238Z,9.50
2022-08-17T07:30:51.354Z,8.98
2022-08-17T07:34:08.412Z,9.63
2022-08-17T07:37:12.675Z,8.13
2022-08-17T07:40:37.556Z,7.95
2022-08-17T07:43:52.331Z,7.75
2022-08-17T07:47:15.900Z,6.55
2022-08-17T07:50:28.914Z,7.47
2022-08-17T07:53:32.162Z,7.47
2022-08-17T07:56:46.004Z,7.70
2022-08-17T08:03:27.119Z,7.90
2022-08-17T08:06:32.147Z,8.00
2022-08-17T08:09:42.125Z,8.63
2022-08-17T08:12:48.447Z,8.57
2022-08-17T08:16:22.609Z,7.90
2022-08-17T08:19:29.231Z,7.75
2022-08-17T08:22:46.047Z,8.57
2022-08-17T08:26:05.040Z,7.43
2022-08-17T08:29:22.494Z,8.63
2022-08-17T08:32:47.994Z,8.15
2022-08-17T08:36:04.764Z,8.65
2022-08-17T08:39:34.863Z,7.40
2022-08-17T08:42:50.409Z,7.85
2022-08-17T08:46:00.682Z,7.03
2022-08-17T08:50:04.300Z,7.75
2022-08-17T08:53:31.982Z,7.20
2022-08-17T08:56:59.194Z,6.65
2022-08-17T09:00:15.748Z,7.72
2022-08-17T09:03:53.199Z,7.18
2022-08-17T09:07:17.239Z,9.38
2022-08-17T09:10:30.776Z,10.13
2022-08-17T09:13:47.134Z,10.07
2022-08-17T09:17:07.408Z,8.25
2022-08-17T09:20:27.436Z,10.93
2022-08-17T09:23:38.278Z,10.68
2022-08-17T09:26:52.452Z,10.27
2022-08-17T09:30:02.510Z,10.48
2022-08-17T09:33:11.520Z,11.57
2022-08-17T09:36:29.260Z,11.38
2022-08-17T09:39:46.497Z,10.40
2022-08-17T09:42:56.627Z,10.90
2022-08-17T09:46:08.247Z,9.82
2022-08-17T09:49:25.117Z,9.32
2022-08-17T09:52:31.535Z,9.95
2022-08-17T09:55:53.421Z,10.52
2022-08-17T09:59:22.447Z,8.70
2022-08-17T10:03:01.471Z,9.63
2022-08-17T10:06:13.723Z,7.95
2022-08-17T10:09:36.677Z,9.07
2022-08-17T10:12:47.634Z,10.10
2022-08-17T10:16:07.762Z,8.13
2022-08-17T10:19:22.255Z,8.93
2022-08-17T10:22:54.813Z,8.30
2022-08-17T10:26:17.569Z,8.40
2022-08-17T10:29:29.918Z,8.50
2022-08-17T10:32:55.170Z,8.50
2022-08-17T10:36:12.235Z,8.60
2022-08-17T10:39:31.896Z,8.57
2022-08-17T10:42:44.497Z,8.82
2022-08-17T10:46:09.203Z,8.25
2022-08-17T10:49:34.165Z,8.65
2022-08-17T10:52:52.782Z,8.27
2022-08-17T10:56:23.777Z,8.20
2022-08-17T10:59:51.812Z,7.78
2022-08-17T11:02:57.458Z,7.38
2022-08-17T11:06:15.212Z,7.10
2022-08-17T11:09:53.370Z,7.32
2022-08-17T11:13:08.522Z,7.13
2022-08-17T11:16:38.748Z,6.68
2022-08-17T11:20:19.290Z,7.88
2022-08-17T11:24:07.615Z,7.03
2022-08-17T11:27:28.351Z,6.05
2022-08-17T11:30:52.628Z,6.93
2022-08-17T11:34:05.975Z,6.97
2022-08-17T11:37:45.948Z,6.53
2022-08-17T11:41:21.087Z,6.10
2022-08-17T11:44:40.749Z,6.00
2022-08-17T11:48:27.877Z,6.03
2022-08-17T11:52:11.333Z,5.88
2022-08-17T11:56:04.219Z,5.82
2022-08-17T12:00:00.239Z,5.22
2022-08-17T12:03:55.449Z,5.28
2022-08-17T12:07:08.201Z,5.43
2022-08-17T12:10:16.131Z,5.00
2022-08-17T12:13:21.573Z,5.15
2022-08-17T12:16:26.821Z,5.78
2022-08-17T12:19:33.867Z,6.43
2022-08-17T12:22:56.528Z,6.68
2022-08-17T12:26:12.946Z,6.85
2022-08-17T12:29:35.938Z,6.57
2022-08-17T12:32:47.600Z,10.73
2022-08-17T12:36:00.094Z,10.25
2022-08-17T12:39:13.955Z,11.77
2022-08-17T12:42:26.557Z,11.85
2022-08-17T12:45:33.644Z,10.70
2022-08-17T12:48:38.411Z,12.48
2022-08-17T12:51:45.924Z,11.35
2022-08-17T12:54:56.176Z,11.38
2022-08-17T12:58:00.849Z,9.85
2022-08-17T13:01:09.790Z,9.10
2022-08-17T13:04:17.186Z,7.55
2022-08-17T13:07:46.518Z,8.23
2022-08-17T13:10:57.671Z,6.25
2022-08-17T13:14:11.726Z,6.50
2022-08-17T13:17:27.544Z,6.60
2022-08-17T13:20:33.364Z,6.30
2022-08-17T13:23:36.713Z,6.18
2022-08-17T13:26:46.642Z,6.53
2022-08-17T13:29:55.715Z,6.75
2022-08-17T13:33:00.376Z,6.53
2022-08-17T13:36:11.391Z,7.32
2022-08-17T13:39:26.491Z,6.93
2022-08-17T13:42:51.780Z,6.93
2022-08-17T13:46:10.746Z,7.18
2022-08-17T13:49:23.214Z,7.47
2022-08-17T13:52:41.071Z,7.00
2022-08-17T13:55:51.676Z,6.60
2022-08-17T13:59:00.277Z,6.70
2022-08-17T14:02:05.721Z,6.70
2022-08-17T14:05:09.276Z,7.22
2022-08-17T14:08:18.762Z,7.50
2022-08-17T14:11:24.006Z,7.05
2022-08-17T14:14:29.224Z,7.07
2022-08-17T14:17:38.089Z,6.80
2022-08-17T14:20:42.250Z,6.10
2022-08-17T14:23:54.570Z,6.43
2022-08-17T14:27:01.393Z,5.85
2022-08-17T14:30:07.700Z,6.97
2022-08-17T14:33:10.914Z,8.18
2022-08-17T14:36:14.187Z,8.40
2022-08-17T14:39:21.738Z,8.60
2022-08-17T14:42:26.268Z,7.35
2022-08-17T14:45:31.908Z,7.13
2022-08-17T14:48:38.536Z,6.63
2022-08-17T14:51:43.714Z,7.32
2022-08-17T14:54:51.509Z,7.38
2022-08-17T14:57:54.715Z,7.45
2022-08-17T15:00:58.558Z,8.15
2022-08-17T15:04:02.188Z,8.75
2022-08-17T15:07:07.270Z,7.95
2022-08-17T15:10:12.618Z,7.80
2022-08-17T15:13:22.625Z,7.80
2022-08-17T15:16:27.069Z,7.03
2022-08-17T15:19:30.474Z,7.57
2022-08-17T15:22:33.715Z,6.88
2022-08-17T15:25:38.347Z,7.20
2022-08-17T15:28:41.675Z,7.63
2022-08-17T15:31:45.791Z,7.32
2022-08-17T15:34:49.523Z,8.68
2022-08-17T15:40:58.604Z,7.45
2022-08-17T15:44:02.508Z,6.80
2022-08-17T15:47:06.267Z,8.40
2022-08-17T15:56:19.300Z,8.43
2022-08-17T15:59:22.674Z,8.55
2022-08-17T16:03:44.312Z,9.23
2022-08-17T16:05:55.217Z,8.65
2022-08-17T16:08:59.786Z,8.15
2022-08-17T16:12:14.259Z,7.13
2022-08-17T16:15:18.751Z,6.63
2022-08-17T16:18:22.778Z,7.20
2022-08-17T16:21:31.291Z,6.72
2022-08-17T16:24:57.328Z,7.93
2022-08-17T16:28:02.272Z,7.25
2022-08-17T16:31:08.016Z,7.15
2022-08-17T16:34:17.457Z,7.20
2022-08-17T16:37:21.791Z,7.45
2022-08-17T16:40:29.061Z,6.85
2022-08-17T16:43:34.692Z,7.15
2022-08-17T16:46:38.044Z,6.95
2022-08-17T16:49:41.305Z,7.65
2022-08-17T16:52:45.623Z,7.68
2022-08-17T16:55:51.853Z,7.22
2022-08-17T16:58:56.437Z,7.05
2022-08-17T17:02:26.888Z,7.63
2022-08-17T17:05:58.654Z,7.10
2022-08-17T17:09:07.185Z,8.65
2022-08-17T17:12:19.838Z,7.97
2022-08-17T17:15:58.824Z,7.70
2022-08-17T17:19:11.898Z,7.53
2022-08-17T17:22:20.119Z,8.23
2022-08-17T17:25:33.856Z,8.05
2022-08-17T17:29:01.541Z,8.27
2022-08-17T17:32:20.857Z,7.90
2022-08-17T17:35:32.003Z,8.40
2022-08-17T17:38:44.545Z,8.15
2022-08-17T17:41:54.668Z,9.15
2022-08-17T17:45:08.538Z,9.32
2022-08-17T17:48:13.399Z,8.95
2022-08-17T17:51:55.647Z,8.90
2022-08-17T17:55:05.354Z,8.93
2022-08-17T17:58:27.323Z,8.30
2022-08-17T18:01:49.348Z,7.50
2022-08-17T18:05:08.352Z,8.05
2022-08-17T18:08:33.816Z,7.60
2022-08-17T18:12:13.132Z,9.05
2022-08-17T18:15:29.556Z,8.05
2022-08-17T18:18:39.845Z,8.05
2022-08-17T18:21:52.142Z,8.77
2022-08-17T18:24:57.276Z,9.48
2022-08-17T18:28:00.563Z,8.85
2022-08-17T18:31:16.636Z,8.40
2022-08-17T18:34:46.497Z,8.15
2022-08-17T18:37:53.857Z,8.30
2022-08-17T18:41:19.222Z,7.40
2022-08-17T18:44:29.370Z,9.35
2022-08-17T18:47:32.717Z,9.32
2022-08-17T18:50:41.574Z,9.15
2022-08-17T18:53:47.403Z,9.00
2022-08-17T18:56:55.935Z,10.82
2022-08-17T19:00:00.785Z,9.60
2022-08-17T19:03:19.983Z,10.60
2022-08-17T19:06:32.844Z,10.35
2022-08-17T19:09:44.639Z,9.25
2022-08-17T19:13:00.648Z,10.20
2022-08-17T19:16:15.788Z,9.60
2022-08-17T19:19:29.065Z,10.15
2022-08-17T19:22:53.524Z,9.52
2022-08-17T19:29:16.271Z,8.77
2022-08-17T19:32:28.643Z,10.18
2022-08-17T19:35:45.287Z,9.45
2022-08-17T19:39:03.410Z,9.18
2022-08-17T19:42:20.212Z,11.27
2022-08-17T19:45:46.367Z,11.50
2022-08-17T19:49:03.788Z,9.38
2022-08-17T19:52:34.382Z,9.95
2022-08-17T19:55:53.524Z,10.30
2022-08-17T19:59:07.850Z,8.68
2022-08-17T20:02:28.914Z,9.38
2022-08-17T20:06:01.311Z,8.20
2022-08-17T20:09:15.216Z,9.02
2022-08-17T20:12:25.283Z,9.27
2022-08-17T20:15:35.695Z,9.07
2022-08-17T20:18:50.654Z,8.70
2022-08-17T20:21:59.887Z,8.73
2022-08-17T20:25:10.986Z,9.15
2022-08-17T20:28:27.812Z,8.70
2022-08-17T20:31:48.518Z,8.95
2022-08-17T20:35:22.432Z,8.65
2022-08-17T20:38:43.363Z,9.20
2022-08-17T20:42:12.498Z,8.65
2022-08-17T20:46:07.851Z,8.40
2022-08-17T20:49:27.829Z,9.30
2022-08-17T20:52:53.184Z,9.02
2022-08-17T20:55:57.112Z,9.35
2022-08-17T21:02:18.441Z,7.70
2022-08-17T21:05:34.360Z,8.38
2022-08-17T21:08:45.908Z,8.30
2022-08-17T21:12:04.960Z,8.40
2022-08-17T21:15:28.581Z,8.40
2022-08-17T21:18:42.476Z,8.50
2022-08-17T21:22:04.645Z,9.50
2022-08-17T21:25:28.138Z,7.63
2022-08-17T21:28:59.938Z,8.73
2022-08-17T21:32:24.246Z,8.63
2022-08-17T21:35:47.193Z,8.57
2022-08-17T21:39:03.704Z,8.20
2022-08-17T21:42:09.341Z,7.78
2022-08-17T21:45:24.856Z,7.82
2022-08-17T21:48:31.280Z,7.47
2022-08-17T21:51:43.959Z,7.22
2022-08-17T21:54:55.791Z,8.20
2022-08-17T21:58:14.882Z,8.55
2022-08-17T22:01:26.422Z,8.70
2022-08-17T22:04:33.266Z,10.02
2022-08-17T22:07:45.394Z,10.32
2022-08-17T22:10:51.967Z,10.57
2022-08-17T22:14:05.348Z,10.45
2022-08-17T22:17:18.738Z,9.00
2022-08-17T22:20:23.500Z,9.27
2022-08-17T22:23:49.907Z,10.13
2022-08-17T22:27:06.933Z,10.68
2022-08-17T22:30:20.940Z,10.40
2022-08-17T22:33:41.847Z,10.27
2022-08-17T22:36:45.184Z,10.15
2022-08-17T22:40:01.003Z,10.90
2022-08-17T22:43:12.000Z,9.05
2022-08-17T22:46:16.570Z,9.75
2022-08-17T22:49:29.153Z,10.57
2022-08-17T22:52:56.903Z,10.57
2022-08-17T22:56:17.920Z,10.68
2022-08-17T22:59:45.531Z,10.10
2022-08-17T23:03:15.114Z,10.07
2022-08-17T23:06:18.437Z,9.05
2022-08-17T23:09:22.304Z,9.47
2022-08-17T23:12:27.761Z,8.95
2022-08-17T23:15:33.916Z,9.18
2022-08-17T23:18:37.473Z,8.52
2022-08-17T23:21:41.429Z,8.40
2022-08-17T23:24:50.564Z,8.00
2022-08-17T23:27:54.416Z,7.20
2022-08-17T23:30:59.575Z,7.22
2022-08-17T23:34:04.461Z,6.70
2022-08-17T23:37:10.950Z,6.45
2022-08-17T23:40:14.487Z,6.50
2022-08-17T23:43:24.180Z,6.20
2022-08-17T23:46:30.221Z,7.28
2022-08-17T23:49:33.789Z,6.80
2022-08-17T23:52:38.524Z,6.50
2022-08-17T23:55:41.708Z,6.10
2022-08-17T23:58:45.768Z,6.50
